sensor_id;sensor_type;location;lat;lon;timestamp;pressure;altitude;pressure_sealevel;temperature;humidity
7768;BME280;3928;42.626;23.382;2023-11-19T00:00:28;94075.97;;;5.76;69.67
7768;BME280;3928;42.626;23.382;2023-11-19T00:02:55;94063.25;;;5.67;69.81
7768;BME280;3928;42.626;23.382;2023-11-19T00:05:22;94073.41;;;5.88;70.12
7768;BME280;3928;42.626;23.382;2023-11-19T00:07:49;94066.63;;;5.83;69.91
7768;BME280;3928;42.626;23.382;2023-11-19T00:10:16;94042.06;;;5.71;69.31
7768;BME280;3928;42.626;23.382;2023-11-19T00:12:46;94070.88;;;5.85;69.46
7768;BME280;3928;42.626;23.382;2023-11-19T00:15:15;94086.16;;;5.73;69.88
7768;BME280;3928;42.626;23.382;2023-11-19T00:17:44;94074.31;;;5.69;69.54
7768;BME280;3928;42.626;23.382;2023-11-19T00:20:12;94078.53;;;5.81;69.62
7768;BME280;3928;42.626;23.382;2023-11-19T00:22:40;94082.78;;;5.80;69.16
7768;BME280;3928;42.626;23.382;2023-11-19T00:25:09;94076.81;;;5.80;68.62
7768;BME280;3928;42.626;23.382;2023-11-19T00:27:36;94080.22;;;5.73;69.48
7768;BME280;3928;42.626;23.382;2023-11-19T00:30:04;94080.25;;;5.50;70.42
7768;BME280;3928;42.626;23.382;2023-11-19T00:32:33;94078.50;;;5.84;69.50
7768;BME280;3928;42.626;23.382;2023-11-19T00:35:00;94085.31;;;5.82;68.45
7768;BME280;3928;42.626;23.382;2023-11-19T00:37:27;94095.50;;;5.83;68.57
7768;BME280;3928;42.626;23.382;2023-11-19T00:39:53;94087.84;;;5.99;68.42
7768;BME280;3928;42.626;23.382;2023-11-19T00:42:21;94090.41;;;5.93;68.58
7768;BME280;3928;42.626;23.382;2023-11-19T00:44:49;94099.69;;;6.09;68.45
7768;BME280;3928;42.626;23.382;2023-11-19T00:47:16;94100.56;;;6.05;67.83
7768;BME280;3928;42.626;23.382;2023-11-19T00:49:47;94103.09;;;6.08;67.54
7768;BME280;3928;42.626;23.382;2023-11-19T00:52:15;94096.34;;;5.98;68.22
7768;BME280;3928;42.626;23.382;2023-11-19T00:54:42;94103.13;;;6.05;67.96
7768;BME280;3928;42.626;23.382;2023-11-19T00:57:08;94093.75;;;6.02;68.36
7768;BME280;3928;42.626;23.382;2023-11-19T00:59:35;94092.97;;;5.93;68.09
7768;BME280;3928;42.626;23.382;2023-11-19T01:02:02;94096.28;;;6.10;67.62
7768;BME280;3928;42.626;23.382;2023-11-19T01:04:33;94105.69;;;5.68;69.74
7768;BME280;3928;42.626;23.382;2023-11-19T01:07:03;94113.31;;;5.82;68.92
7768;BME280;3928;42.626;23.382;2023-11-19T01:09:30;94109.91;;;6.04;68.05
7768;BME280;3928;42.626;23.382;2023-11-19T01:12:00;93875.22;;;4.68;67.59
7768;BME280;3928;42.626;23.382;2023-11-19T01:14:27;94102.31;;;5.92;68.57
7768;BME280;3928;42.626;23.382;2023-11-19T01:16:54;94098.91;;;5.93;68.49
7768;BME280;3928;42.626;23.382;2023-11-19T01:19:21;94103.97;;;5.67;69.57
7768;BME280;3928;42.626;23.382;2023-11-19T01:21:49;94093.78;;;5.90;69.06
7768;BME280;3928;42.626;23.382;2023-11-19T01:24:18;94086.13;;;6.02;68.13
7768;BME280;3928;42.626;23.382;2023-11-19T01:26:45;94097.13;;;6.18;68.10
7768;BME280;3928;42.626;23.382;2023-11-19T01:29:14;94095.47;;;5.97;67.99
7768;BME280;3928;42.626;23.382;2023-11-19T01:31:42;94106.53;;;5.95;68.42
7768;BME280;3928;42.626;23.382;2023-11-19T01:34:10;93921.75;;;4.96;67.63
7768;BME280;3928;42.626;23.382;2023-11-19T01:36:37;94091.22;;;6.01;67.89
7768;BME280;3928;42.626;23.382;2023-11-19T01:39:04;94101.41;;;5.92;67.58
7768;BME280;3928;42.626;23.382;2023-11-19T01:41:35;94105.69;;;5.74;68.51
7768;BME280;3928;42.626;23.382;2023-11-19T01:44:02;94091.28;;;5.61;68.55
7768;BME280;3928;42.626;23.382;2023-11-19T01:46:29;94116.72;;;5.84;68.36
7768;BME280;3928;42.626;23.382;2023-11-19T01:48:58;93967.53;;;4.96;68.26
7768;BME280;3928;42.626;23.382;2023-11-19T01:51:26;94094.69;;;5.60;68.46
7768;BME280;3928;42.626;23.382;2023-11-19T01:53:54;94099.72;;;5.91;67.50
7768;BME280;3928;42.626;23.382;2023-11-19T01:56:23;94120.09;;;5.97;66.49
7768;BME280;3928;42.626;23.382;2023-11-19T01:58:53;94094.63;;;5.91;67.05
7768;BME280;3928;42.626;23.382;2023-11-19T02:01:22;94109.91;;;5.78;67.72
7768;BME280;3928;42.626;23.382;2023-11-19T02:03:48;94091.22;;;5.79;66.83
7768;BME280;3928;42.626;23.382;2023-11-19T02:06:15;94064.94;;;5.67;66.22
7768;BME280;3928;42.626;23.382;2023-11-19T02:08:43;94099.75;;;5.75;66.35
7768;BME280;3928;42.626;23.382;2023-11-19T02:11:10;94088.72;;;5.64;67.02
7768;BME280;3928;42.626;23.382;2023-11-19T02:13:38;94087.00;;;5.68;66.61
7768;BME280;3928;42.626;23.382;2023-11-19T02:16:08;94083.63;;;5.55;67.30
7768;BME280;3928;42.626;23.382;2023-11-19T02:18:36;94075.19;;;5.57;67.22
7768;BME280;3928;42.626;23.382;2023-11-19T02:21:03;94083.63;;;5.73;66.72
7768;BME280;3928;42.626;23.382;2023-11-19T02:23:31;94088.69;;;5.85;66.07
7768;BME280;3928;42.626;23.382;2023-11-19T02:26:11;94082.75;;;5.83;66.11
7768;BME280;3928;42.626;23.382;2023-11-19T02:28:42;94075.16;;;5.44;66.50
7768;BME280;3928;42.626;23.382;2023-11-19T02:31:09;94087.06;;;5.49;67.37
7768;BME280;3928;42.626;23.382;2023-11-19T02:33:37;94097.22;;;5.52;66.30
7768;BME280;3928;42.626;23.382;2023-11-19T02:36:04;94077.72;;;5.50;65.78
7768;BME280;3928;42.626;23.382;2023-11-19T02:38:32;94083.66;;;5.38;66.40
7768;BME280;3928;42.626;23.382;2023-11-19T02:41:02;94092.13;;;5.55;67.02
7768;BME280;3928;42.626;23.382;2023-11-19T02:43:31;93860.81;;;3.95;67.49
7768;BME280;3928;42.626;23.382;2023-11-19T02:46:01;94097.22;;;5.14;67.50
7768;BME280;3928;42.626;23.382;2023-11-19T02:48:28;94094.69;;;5.23;68.12
7768;BME280;3928;42.626;23.382;2023-11-19T02:50:56;94097.22;;;5.17;67.31
7768;BME280;3928;42.626;23.382;2023-11-19T02:53:23;94104.88;;;5.36;67.12
7768;BME280;3928;42.626;23.382;2023-11-19T02:55:53;94119.31;;;5.35;67.67
7768;BME280;3928;42.626;23.382;2023-11-19T02:58:26;94105.69;;;5.32;67.42
7768;BME280;3928;42.626;23.382;2023-11-19T03:00:54;94098.94;;;5.27;68.29
7768;BME280;3928;42.626;23.382;2023-11-19T03:03:24;94093.84;;;5.40;67.17
7768;BME280;3928;42.626;23.382;2023-11-19T03:05:56;94109.13;;;5.47;67.03
7768;BME280;3928;42.626;23.382;2023-11-19T03:08:23;94106.53;;;5.55;66.64
7768;BME280;3928;42.626;23.382;2023-11-19T03:10:50;94107.41;;;5.58;66.04
7768;BME280;3928;42.626;23.382;2023-11-19T03:13:17;94113.34;;;5.62;66.08
7768;BME280;3928;42.626;23.382;2023-11-19T03:15:43;94108.28;;;5.47;66.59
7768;BME280;3928;42.626;23.382;2023-11-19T03:18:11;94109.13;;;5.38;66.00
7768;BME280;3928;42.626;23.382;2023-11-19T03:20:39;94125.22;;;5.48;66.90
7768;BME280;3928;42.626;23.382;2023-11-19T03:23:06;94132.84;;;5.77;65.73
7768;BME280;3928;42.626;23.382;2023-11-19T03:25:33;94132.00;;;5.82;65.88
7768;BME280;3928;42.626;23.382;2023-11-19T03:28:02;94132.88;;;5.92;65.37
7768;BME280;3928;42.626;23.382;2023-11-19T03:30:29;93837.97;;;3.83;65.48
7768;BME280;3928;42.626;23.382;2023-11-19T03:32:57;94128.59;;;5.71;65.52
7768;BME280;3928;42.626;23.382;2023-11-19T03:35:25;94126.06;;;5.70;65.93
7768;BME280;3928;42.626;23.382;2023-11-19T03:37:54;94127.72;;;5.80;65.27
7768;BME280;3928;42.626;23.382;2023-11-19T03:40:21;94123.53;;;5.50;65.98
7768;BME280;3928;42.626;23.382;2023-11-19T03:42:49;94133.69;;;5.25;66.60
7768;BME280;3928;42.626;23.382;2023-11-19T03:45:16;94108.28;;;5.22;66.56
7768;BME280;3928;42.626;23.382;2023-11-19T03:47:43;94144.72;;;5.31;67.08
7768;BME280;3928;42.626;23.382;2023-11-19T03:50:10;94146.44;;;5.22;67.95
7768;BME280;3928;42.626;23.382;2023-11-19T03:52:37;94153.22;;;5.25;67.60
7768;BME280;3928;42.626;23.382;2023-11-19T03:55:06;94154.06;;;5.53;67.33
7768;BME280;3928;42.626;23.382;2023-11-19T03:57:34;94144.75;;;5.69;66.23
7768;BME280;3928;42.626;23.382;2023-11-19T04:00:01;94152.38;;;5.69;65.65
7768;BME280;3928;42.626;23.382;2023-11-19T04:02:33;94147.28;;;5.52;66.07
7768;BME280;3928;42.626;23.382;2023-11-19T04:05:00;94155.75;;;5.54;66.33
7768;BME280;3928;42.626;23.382;2023-11-19T04:07:27;94160.81;;;5.33;66.72
7768;BME280;3928;42.626;23.382;2023-11-19T04:09:54;94160.00;;;5.34;67.58
7768;BME280;3928;42.626;23.382;2023-11-19T04:12:22;94161.69;;;5.51;66.85
7768;BME280;3928;42.626;23.382;2023-11-19T04:14:49;94147.28;;;5.52;66.64
7768;BME280;3928;42.626;23.382;2023-11-19T04:17:15;94166.81;;;5.71;66.06
7768;BME280;3928;42.626;23.382;2023-11-19T04:19:42;94164.25;;;5.61;66.16
7768;BME280;3928;42.626;23.382;2023-11-19T04:22:09;94167.63;;;5.50;66.95
7768;BME280;3928;42.626;23.382;2023-11-19T04:24:36;94171.03;;;5.42;67.59
7768;BME280;3928;42.626;23.382;2023-11-19T04:27:04;94156.63;;;5.59;66.56
7768;BME280;3928;42.626;23.382;2023-11-19T04:29:33;94154.91;;;5.61;66.16
7768;BME280;3928;42.626;23.382;2023-11-19T04:32:00;94135.41;;;5.60;66.36
7768;BME280;3928;42.626;23.382;2023-11-19T04:34:26;94161.72;;;5.57;66.44
7768;BME280;3928;42.626;23.382;2023-11-19T04:36:53;94154.06;;;5.65;66.25
7768;BME280;3928;42.626;23.382;2023-11-19T04:39:20;94162.56;;;5.34;66.99
7768;BME280;3928;42.626;23.382;2023-11-19T04:41:48;94175.25;;;5.44;66.47
7768;BME280;3928;42.626;23.382;2023-11-19T04:44:15;94176.09;;;5.22;67.50
7768;BME280;3928;42.626;23.382;2023-11-19T04:46:44;94104.84;;;5.05;66.40
7768;BME280;3928;42.626;23.382;2023-11-19T04:49:12;94173.59;;;5.45;66.82
7768;BME280;3928;42.626;23.382;2023-11-19T04:51:40;94165.94;;;5.54;66.27
7768;BME280;3928;42.626;23.382;2023-11-19T04:54:08;94158.31;;;5.45;66.14
7768;BME280;3928;42.626;23.382;2023-11-19T04:56:35;94176.97;;;5.56;65.28
7768;BME280;3928;42.626;23.382;2023-11-19T04:59:02;94176.13;;;5.55;64.96
7768;BME280;3928;42.626;23.382;2023-11-19T05:01:31;94165.09;;;5.53;64.98
7768;BME280;3928;42.626;23.382;2023-11-19T05:04:00;94173.56;;;5.31;66.11
7768;BME280;3928;42.626;23.382;2023-11-19T05:06:27;94176.97;;;5.42;65.41
7768;BME280;3928;42.626;23.382;2023-11-19T05:08:55;94160.88;;;5.48;64.79
7768;BME280;3928;42.626;23.382;2023-11-19T05:11:22;94186.31;;;5.58;64.58
7768;BME280;3928;42.626;23.382;2023-11-19T05:13:48;94179.50;;;5.41;64.92
7768;BME280;3928;42.626;23.382;2023-11-19T05:16:15;94178.69;;;5.46;65.51
7768;BME280;3928;42.626;23.382;2023-11-19T05:18:43;94176.97;;;5.24;65.79
7768;BME280;3928;42.626;23.382;2023-11-19T05:21:11;94103.97;;;4.97;64.84
7768;BME280;3928;42.626;23.382;2023-11-19T05:23:39;94187.94;;;5.06;67.05
7768;BME280;3928;42.626;23.382;2023-11-19T05:26:07;94204.09;;;5.31;65.91
7768;BME280;3928;42.626;23.382;2023-11-19T05:28:34;94192.25;;;5.33;66.10
7768;BME280;3928;42.626;23.382;2023-11-19T05:31:01;94187.13;;;5.27;65.46
7768;BME280;3928;42.626;23.382;2023-11-19T05:33:28;94188.78;;;5.08;66.15
7768;BME280;3928;42.626;23.382;2023-11-19T05:35:55;94213.34;;;5.03;66.91
7768;BME280;3928;42.626;23.382;2023-11-19T05:38:23;94215.09;;;5.10;66.83
7768;BME280;3928;42.626;23.382;2023-11-19T05:40:50;94209.13;;;5.04;66.71
7768;BME280;3928;42.626;23.382;2023-11-19T05:43:17;94215.03;;;4.92;67.19
7768;BME280;3928;42.626;23.382;2023-11-19T05:45:44;94193.00;;;5.00;66.78
7768;BME280;3928;42.626;23.382;2023-11-19T05:48:11;94193.03;;;5.12;67.34
7768;BME280;3928;42.626;23.382;2023-11-19T05:50:38;94201.50;;;5.05;66.66
7768;BME280;3928;42.626;23.382;2023-11-19T05:53:05;94199.75;;;4.87;67.54
7768;BME280;3928;42.626;23.382;2023-11-19T05:55:37;94189.63;;;4.98;67.47
7768;BME280;3928;42.626;23.382;2023-11-19T05:58:10;94190.50;;;5.18;67.02
7768;BME280;3928;42.626;23.382;2023-11-19T06:00:40;94200.69;;;5.14;67.18
7768;BME280;3928;42.626;23.382;2023-11-19T06:03:07;94026.69;;;4.00;67.89
7768;BME280;3928;42.626;23.382;2023-11-19T06:05:34;94206.59;;;5.11;66.92
7768;BME280;3928;42.626;23.382;2023-11-19T06:08:01;94216.75;;;5.08;66.60
7768;BME280;3928;42.626;23.382;2023-11-19T06:10:28;94219.34;;;5.26;66.37
7768;BME280;3928;42.626;23.382;2023-11-19T06:12:59;94229.50;;;5.20;66.97
7768;BME280;3928;42.626;23.382;2023-11-19T06:15:26;94219.25;;;4.90;67.74
7768;BME280;3928;42.626;23.382;2023-11-19T06:17:53;94210.00;;;5.12;66.81
7768;BME280;3928;42.626;23.382;2023-11-19T06:20:20;94201.56;;;5.22;66.49
7768;BME280;3928;42.626;23.382;2023-11-19T06:22:47;94222.75;;;5.22;67.22
7768;BME280;3928;42.626;23.382;2023-11-19T06:25:14;94213.41;;;5.09;67.73
7768;BME280;3928;42.626;23.382;2023-11-19T06:27:41;94212.56;;;5.28;67.44
7768;BME280;3928;42.626;23.382;2023-11-19T06:30:11;94217.66;;;5.44;66.95
7768;BME280;3928;42.626;23.382;2023-11-19T06:32:38;94217.69;;;5.36;65.87
7768;BME280;3928;42.626;23.382;2023-11-19T06:35:05;94214.25;;;5.25;66.67
7768;BME280;3928;42.626;23.382;2023-11-19T06:37:33;94233.69;;;5.00;67.56
7768;BME280;3928;42.626;23.382;2023-11-19T06:39:59;94226.91;;;4.99;68.15
7768;BME280;3928;42.626;23.382;2023-11-19T06:42:26;94234.50;;;4.93;67.98
7768;BME280;3928;42.626;23.382;2023-11-19T06:44:53;94221.84;;;5.08;67.16
7768;BME280;3928;42.626;23.382;2023-11-19T06:47:25;94227.84;;;5.22;67.16
7768;BME280;3928;42.626;23.382;2023-11-19T06:49:52;94228.66;;;5.09;67.52
7768;BME280;3928;42.626;23.382;2023-11-19T06:52:19;94242.22;;;5.14;67.50
7768;BME280;3928;42.626;23.382;2023-11-19T06:54:47;94232.94;;;5.24;66.91
7768;BME280;3928;42.626;23.382;2023-11-19T06:57:14;94223.59;;;5.27;65.86
7768;BME280;3928;42.626;23.382;2023-11-19T06:59:41;94232.94;;;5.22;66.23
7768;BME280;3928;42.626;23.382;2023-11-19T07:02:08;94234.59;;;5.16;66.38
7768;BME280;3928;42.626;23.382;2023-11-19T07:04:36;94238.00;;;5.27;67.05
7768;BME280;3928;42.626;23.382;2023-11-19T07:07:06;94219.34;;;5.25;66.44
7768;BME280;3928;42.626;23.382;2023-11-19T07:09:33;94234.63;;;5.29;66.29
7768;BME280;3928;42.626;23.382;2023-11-19T07:12:00;94228.69;;;5.43;65.67
7768;BME280;3928;42.626;23.382;2023-11-19T07:14:30;94238.06;;;5.48;65.05
7768;BME280;3928;42.626;23.382;2023-11-19T07:16:57;94227.84;;;5.35;64.94
7768;BME280;3928;42.626;23.382;2023-11-19T07:19:24;94255.84;;;5.33;64.70
7768;BME280;3928;42.626;23.382;2023-11-19T07:21:52;94263.47;;;5.39;64.92
7768;BME280;3928;42.626;23.382;2023-11-19T07:24:19;94264.28;;;5.21;65.59
7768;BME280;3928;42.626;23.382;2023-11-19T07:26:47;94271.13;;;5.42;65.69
7768;BME280;3928;42.626;23.382;2023-11-19T07:29:14;94234.59;;;5.19;65.19
7768;BME280;3928;42.626;23.382;2023-11-19T07:31:41;94275.31;;;5.22;65.26
7768;BME280;3928;42.626;23.382;2023-11-19T07:34:09;94265.97;;;5.19;64.54
7768;BME280;3928;42.626;23.382;2023-11-19T07:36:37;94276.94;;;5.02;65.92
7768;BME280;3928;42.626;23.382;2023-11-19T07:39:06;94266.81;;;5.15;65.15
7768;BME280;3928;42.626;23.382;2023-11-19T07:41:33;94280.41;;;5.33;64.70
7768;BME280;3928;42.626;23.382;2023-11-19T07:44:01;94272.75;;;5.20;65.00
7768;BME280;3928;42.626;23.382;2023-11-19T07:46:27;94278.72;;;5.32;64.38
7768;BME280;3928;42.626;23.382;2023-11-19T07:48:54;94290.59;;;5.28;64.47
7768;BME280;3928;42.626;23.382;2023-11-19T07:51:21;94274.41;;;5.05;65.92
7768;BME280;3928;42.626;23.382;2023-11-19T07:53:48;94282.06;;;5.18;65.49
7768;BME280;3928;42.626;23.382;2023-11-19T07:56:17;94287.13;;;5.08;65.07
7768;BME280;3928;42.626;23.382;2023-11-19T07:58:44;94270.16;;;5.04;63.85
7768;BME280;3928;42.626;23.382;2023-11-19T08:01:11;94288.00;;;5.14;65.40
7768;BME280;3928;42.626;23.382;2023-11-19T08:03:39;94289.75;;;5.21;64.36
7768;BME280;3928;42.626;23.382;2023-11-19T08:06:06;94276.16;;;5.21;63.74
7768;BME280;3928;42.626;23.382;2023-11-19T08:08:33;94296.56;;;5.35;64.92
7768;BME280;3928;42.626;23.382;2023-11-19T08:11:00;94281.22;;;5.10;64.02
7768;BME280;3928;42.626;23.382;2023-11-19T08:13:28;94289.69;;;5.18;64.16
7768;BME280;3928;42.626;23.382;2023-11-19T08:15:56;94288.03;;;5.26;63.78
7768;BME280;3928;42.626;23.382;2023-11-19T08:18:23;94295.72;;;5.39;62.87
7768;BME280;3928;42.626;23.382;2023-11-19T08:20:51;94287.00;;;4.85;63.96
7768;BME280;3928;42.626;23.382;2023-11-19T08:23:19;94274.22;;;4.66;65.51
7768;BME280;3928;42.626;23.382;2023-11-19T08:25:46;94299.03;;;5.13;63.95
7768;BME280;3928;42.626;23.382;2023-11-19T08:28:13;94284.66;;;5.27;63.56
7768;BME280;3928;42.626;23.382;2023-11-19T08:30:41;94293.22;;;5.58;63.07
7768;BME280;3928;42.626;23.382;2023-11-19T08:33:09;94123.34;;;4.49;62.65
7768;BME280;3928;42.626;23.382;2023-11-19T08:35:37;94273.50;;;4.96;63.80
7768;BME280;3928;42.626;23.382;2023-11-19T08:38:03;94312.69;;;5.44;63.29
7768;BME280;3928;42.626;23.382;2023-11-19T08:40:30;94311.03;;;5.62;62.86
7768;BME280;3928;42.626;23.382;2023-11-19T08:42:57;94322.06;;;5.59;63.47
7768;BME280;3928;42.626;23.382;2023-11-19T08:45:24;94118.22;;;4.31;62.35
7768;BME280;3928;42.626;23.382;2023-11-19T08:47:53;94333.09;;;5.61;62.73
7768;BME280;3928;42.626;23.382;2023-11-19T08:50:20;94283.88;;;5.54;61.89
7768;BME280;3928;42.626;23.382;2023-11-19T08:52:47;94311.97;;;5.97;62.21
7768;BME280;3928;42.626;23.382;2023-11-19T08:55:13;94300.97;;;6.17;60.53
7768;BME280;3928;42.626;23.382;2023-11-19T08:57:40;94313.69;;;6.30;58.96
7768;BME280;3928;42.626;23.382;2023-11-19T09:00:07;94306.91;;;6.09;58.60
7768;BME280;3928;42.626;23.382;2023-11-19T09:02:34;94280.56;;;6.00;59.05
7768;BME280;3928;42.626;23.382;2023-11-19T09:05:04;94307.72;;;6.11;59.29
7768;BME280;3928;42.626;23.382;2023-11-19T09:07:33;94312.84;;;6.18;60.64
7768;BME280;3928;42.626;23.382;2023-11-19T09:10:00;94282.25;;;6.02;59.04
7768;BME280;3928;42.626;23.382;2023-11-19T09:12:27;94293.28;;;6.13;58.83
7768;BME280;3928;42.626;23.382;2023-11-19T09:14:53;94284.78;;;6.25;58.75
7768;BME280;3928;42.626;23.382;2023-11-19T09:17:20;94272.88;;;6.45;58.42
7768;BME280;3928;42.626;23.382;2023-11-19T09:19:47;94290.72;;;6.55;58.07
7768;BME280;3928;42.626;23.382;2023-11-19T09:22:15;94273.72;;;6.60;57.69
7768;BME280;3928;42.626;23.382;2023-11-19T09:24:42;94294.09;;;6.69;57.20
7768;BME280;3928;42.626;23.382;2023-11-19T09:27:10;94300.03;;;6.77;57.90
7768;BME280;3928;42.626;23.382;2023-11-19T09:29:37;94206.63;;;6.45;57.70
7768;BME280;3928;42.626;23.382;2023-11-19T09:32:04;94314.31;;;7.35;55.17
7768;BME280;3928;42.626;23.382;2023-11-19T09:34:31;94252.28;;;7.10;54.84
7768;BME280;3928;42.626;23.382;2023-11-19T09:36:58;94281.16;;;7.27;56.27
7768;BME280;3928;42.626;23.382;2023-11-19T09:39:27;94264.28;;;6.86;55.66
7768;BME280;3928;42.626;23.382;2023-11-19T09:41:54;94277.97;;;6.58;56.81
7768;BME280;3928;42.626;23.382;2023-11-19T09:44:21;94249.03;;;6.69;58.21
7768;BME280;3928;42.626;23.382;2023-11-19T09:46:48;94266.81;;;6.94;55.85
7768;BME280;3928;42.626;23.382;2023-11-19T09:49:19;94264.34;;;6.77;57.42
7768;BME280;3928;42.626;23.382;2023-11-19T09:51:47;94245.38;;;7.31;58.88
7768;BME280;3928;42.626;23.382;2023-11-19T09:54:14;94224.78;;;7.57;55.25
7768;BME280;3928;42.626;23.382;2023-11-19T09:56:43;94209.38;;;7.73;57.62
7768;BME280;3928;42.626;23.382;2023-11-19T09:59:10;94193.16;;;7.78;54.10
7768;BME280;3928;42.626;23.382;2023-11-19T10:01:38;94211.19;;;7.55;55.79
7768;BME280;3928;42.626;23.382;2023-11-19T10:04:05;94186.50;;;7.59;53.85
7768;BME280;3928;42.626;23.382;2023-11-19T10:06:33;94186.50;;;7.59;57.05
7768;BME280;3928;42.626;23.382;2023-11-19T10:09:00;94176.38;;;7.44;54.12
7768;BME280;3928;42.626;23.382;2023-11-19T10:11:27;94200.13;;;7.56;54.87
7768;BME280;3928;42.626;23.382;2023-11-19T10:13:55;94191.69;;;7.47;56.18
7768;BME280;3928;42.626;23.382;2023-11-19T10:16:28;94214.44;;;7.79;56.46
7768;BME280;3928;42.626;23.382;2023-11-19T10:18:56;94215.97;;;8.01;54.73
7768;BME280;3928;42.626;23.382;2023-11-19T10:21:23;94214.41;;;7.83;53.23
7768;BME280;3928;42.626;23.382;2023-11-19T10:23:52;94200.31;;;8.38;56.18
7768;BME280;3928;42.626;23.382;2023-11-19T10:26:19;94217.13;;;8.60;50.99
7768;BME280;3928;42.626;23.382;2023-11-19T10:28:47;94227.63;;;9.11;51.68
7768;BME280;3928;42.626;23.382;2023-11-19T10:31:15;94158.91;;;8.82;49.23
7768;BME280;3928;42.626;23.382;2023-11-19T10:33:43;94207.81;;;9.27;48.33
7768;BME280;3928;42.626;23.382;2023-11-19T10:36:10;94209.19;;;9.51;48.46
7768;BME280;3928;42.626;23.382;2023-11-19T10:38:38;94202.41;;;10.04;51.06
7768;BME280;3928;42.626;23.382;2023-11-19T10:41:05;94207.34;;;10.67;46.15
7768;BME280;3928;42.626;23.382;2023-11-19T10:43:42;94208.38;;;10.57;43.57
7768;BME280;3928;42.626;23.382;2023-11-19T10:46:11;94222.69;;;10.68;44.17
7768;BME280;3928;42.626;23.382;2023-11-19T10:48:40;94196.94;;;10.73;42.55
7768;BME280;3928;42.626;23.382;2023-11-19T10:51:07;94208.63;;;10.88;43.89
7768;BME280;3928;42.626;23.382;2023-11-19T10:53:37;94186.72;;;11.15;42.32
7768;BME280;3928;42.626;23.382;2023-11-19T10:56:07;94191.88;;;11.11;42.19
7768;BME280;3928;42.626;23.382;2023-11-19T10:58:37;94182.22;;;10.82;42.72
7768;BME280;3928;42.626;23.382;2023-11-19T11:01:11;94181.47;;;10.76;42.85
7768;BME280;3928;42.626;23.382;2023-11-19T11:03:41;94185.66;;;10.81;45.11
7768;BME280;3928;42.626;23.382;2023-11-19T11:06:10;94176.06;;;10.91;43.97
7768;BME280;3928;42.626;23.382;2023-11-19T11:08:39;94171.34;;;10.70;42.07
7768;BME280;3928;42.626;23.382;2023-11-19T11:11:07;94175.84;;;11.02;42.05
7768;BME280;3928;42.626;23.382;2023-11-19T11:13:37;94163.63;;;11.11;42.13
7768;BME280;3928;42.626;23.382;2023-11-19T11:16:08;94165.63;;;11.39;42.82
7768;BME280;3928;42.626;23.382;2023-11-19T11:18:36;94165.41;;;11.87;43.36
7768;BME280;3928;42.626;23.382;2023-11-19T11:21:07;94175.41;;;12.33;40.31
7768;BME280;3928;42.626;23.382;2023-11-19T11:24:08;94172.25;;;13.18;38.16
7768;BME280;3928;42.626;23.382;2023-11-19T11:26:55;94174.66;;;13.24;37.56
7768;BME280;3928;42.626;23.382;2023-11-19T11:29:40;94179.88;;;13.23;36.35
7768;BME280;3928;42.626;23.382;2023-11-19T11:32:20;94173.41;;;13.37;36.48
7768;BME280;3928;42.626;23.382;2023-11-19T11:35:12;94165.38;;;13.76;37.88
7768;BME280;3928;42.626;23.382;2023-11-19T11:37:46;94167.00;;;14.31;36.03
7768;BME280;3928;42.626;23.382;2023-11-19T11:40:15;94179.16;;;14.81;35.48
7768;BME280;3928;42.626;23.382;2023-11-19T11:42:44;94165.06;;;15.13;35.18
7768;BME280;3928;42.626;23.382;2023-11-19T11:45:12;94131.94;;;15.46;34.43
7768;BME280;3928;42.626;23.382;2023-11-19T11:48:08;94148.25;;;16.35;34.69
7768;BME280;3928;42.626;23.382;2023-11-19T11:50:36;94143.03;;;16.78;32.86
7768;BME280;3928;42.626;23.382;2023-11-19T11:53:19;94142.56;;;17.46;32.72
7768;BME280;3928;42.626;23.382;2023-11-19T11:55:55;94161.91;;;17.96;30.90
7768;BME280;3928;42.626;23.382;2023-11-19T11:58:32;94161.13;;;18.13;30.28
7768;BME280;3928;42.626;23.382;2023-11-19T12:01:04;94166.03;;;18.53;31.22
7768;BME280;3928;42.626;23.382;2023-11-19T12:03:32;94163.53;;;18.69;30.79
7768;BME280;3928;42.626;23.382;2023-11-19T12:05:59;94166.06;;;19.21;30.07
7768;BME280;3928;42.626;23.382;2023-11-19T12:08:29;94181.94;;;18.99;29.29
7768;BME280;3928;42.626;23.382;2023-11-19T12:10:58;94176.41;;;19.55;28.79
7768;BME280;3928;42.626;23.382;2023-11-19T12:13:45;94117.59;;;19.51;27.59
7768;BME280;3928;42.626;23.382;2023-11-19T12:16:13;94158.97;;;19.89;28.43
7768;BME280;3928;42.626;23.382;2023-11-19T12:18:40;94152.69;;;20.23;28.04
7768;BME280;3928;42.626;23.382;2023-11-19T12:21:08;94152.47;;;20.58;26.94
7768;BME280;3928;42.626;23.382;2023-11-19T12:23:45;94153.84;;;20.79;27.08
7768;BME280;3928;42.626;23.382;2023-11-19T12:26:35;94143.47;;;21.08;26.27
7768;BME280;3928;42.626;23.382;2023-11-19T12:29:03;94128.88;;;21.34;26.56
7768;BME280;3928;42.626;23.382;2023-11-19T12:31:32;94146.66;;;21.70;25.43
7768;BME280;3928;42.626;23.382;2023-11-19T12:34:05;94135.03;;;21.88;25.63
7768;BME280;3928;42.626;23.382;2023-11-19T12:36:32;94122.44;;;22.22;26.02
7768;BME280;3928;42.626;23.382;2023-11-19T12:39:00;94125.84;;;22.36;25.46
7768;BME280;3928;42.626;23.382;2023-11-19T12:41:27;94121.38;;;22.38;25.30
7768;BME280;3928;42.626;23.382;2023-11-19T12:44:08;94112.59;;;22.39;24.72
7768;BME280;3928;42.626;23.382;2023-11-19T12:46:35;94117.16;;;22.36;24.82
7768;BME280;3928;42.626;23.382;2023-11-19T12:49:02;94109.00;;;22.28;24.93
7768;BME280;3928;42.626;23.382;2023-11-19T12:51:31;94121.31;;;22.26;24.74
7768;BME280;3928;42.626;23.382;2023-11-19T12:54:00;94114.56;;;22.09;24.85
7768;BME280;3928;42.626;23.382;2023-11-19T12:56:27;94107.47;;;22.11;24.95
7768;BME280;3928;42.626;23.382;2023-11-19T12:58:55;94114.84;;;21.90;25.51
7768;BME280;3928;42.626;23.382;2023-11-19T13:01:22;94087.91;;;21.48;25.91
7768;BME280;3928;42.626;23.382;2023-11-19T13:03:49;94113.06;;;21.64;25.41
7768;BME280;3928;42.626;23.382;2023-11-19T13:06:16;94123.97;;;21.70;26.08
7768;BME280;3928;42.626;23.382;2023-11-19T13:08:47;94076.34;;;21.52;25.72
7768;BME280;3928;42.626;23.382;2023-11-19T13:11:32;94124.47;;;21.89;25.57
7768;BME280;3928;42.626;23.382;2023-11-19T13:14:00;94114.66;;;22.07;23.84
7768;BME280;3928;42.626;23.382;2023-11-19T13:16:29;94109.25;;;21.96;24.77
7768;BME280;3928;42.626;23.382;2023-11-19T13:18:56;94103.66;;;22.02;25.09
7768;BME280;3928;42.626;23.382;2023-11-19T13:21:24;94101.41;;;22.10;24.74
7768;BME280;3928;42.626;23.382;2023-11-19T13:23:52;94099.16;;;22.04;24.50
7768;BME280;3928;42.626;23.382;2023-11-19T13:26:19;94098.34;;;22.31;25.26